Regina, Saskatchewan

3:55 PM CST on March 27, 2015 (GMT -0600)
Regina | | Change Station
CLOSE
Current Station
Airport
Location: Regina,
Elevation: 1893 ft
Nearby Weather Stations

Elev 1893 ft 50.43 °N, 104.67 °W | Updated 55 minutes ago

Overcast
Overcast
52 °F
Feels Like 52 °F
N
14
Wind Variable Wind from NNW

Today
High -- | Low -- °F
--% Chance of Precip.
Yesterday
High -- | Low -- °F
Precip. -- in
6:46 AM 7:22 PM
First Quarter, 56% visible
Pressure 29.95 in
Visibility 15.0 miles
Clouds Few 3000 ft
Few 7000 ft
Overcast 24000 ft
Dew Point 41 °F
Humidity 67%
Rainfall 0.00 in
Snow Depth Not available.
UV 1 out of 12
Pollen Not available.
Air Quality Not available.
Flu Activity Not available.
METAR CYQR 272100Z 34012KT 15SM FEW030 FEW070 OVC240 11/05 A2989 RMK CU1AC1CI7 CU TR SLP142 DENSITY ALT 1900FT

More Conditions Fewer Conditions

Pressure 29.95 in
Visibility 15.0 miles
Clouds Few 3000 ft
Few 7000 ft
Overcast 24000 ft
Dew Point 41 °F
Humidity 67%
Rainfall 0.00 in
Snow Depth Not available.
UV 1 out of 12
Pollen Not available.
Air Quality Not available.
Flu Activity Not available.
METAR CYQR 272100Z 34012KT 15SM FEW030 FEW070 OVC240 11/05 A2989 RMK CU1AC1CI7 CU TR SLP142 DENSITY ALT 1900FT

More Conditions Fewer Conditions

10-Day Weather Forecast

Almanac

Astronomy

Mar. 27, 2015 Rise Set
Actual Time
Civil Twilight
Nautical Twilight
Astronomical Twilight
Moon
Length of Visible Light
Length of Day
Tomorrow will be .
, % of the Moon is Illuminated

Today's Extremes

Country Highs Country Lows

Community

WunderPhotos

Upload Photos

1,808,834 photos uploaded!

WunderBlogs® & News

Nearby

Air Quality

  Air Quality AQ Index Pollutant
Not available.

Snow Depth

Station Depth Elevation

Earthquake Activity

City Distance Mag. Time & Date
Minimum magnitude displayed is 2.5.

Coastal Water Temperatures

Place Temperature

Stations

Nearby Weather Stations

Station Location Temp. Windchill Dew Point Humidity Wind Precip. Elev Updated Type